Time;durP1;ratioP1;P1;durP2;ratioP2;P2;SDS_P1;SDS_P2;PMS_P1;PMS_P2;Temp;Humidity;BMP_temperature;BMP_pressure;BME280_temperature;BME280_humidity;BME280_pressure;Samples;Min_cycle;Max_cycle;Signal;HPM_P1;HPM_P2
2022/04/23 00:00:38;;;;;;;10.60;5.75;;;;;;;21.19;34.79;99478.53;5135007;27;20039;-71
2022/04/23 00:03:04;;;;;;;13.77;6.50;;;;;;;21.23;34.78;99477.13;5121318;27;20035;-71
2022/04/23 00:05:29;;;;;;;7.57;5.25;;;;;;;21.24;34.69;99473.41;5138055;27;20026;-71
2022/04/23 00:08:04;;;;;;;11.80;6.40;;;;;;;21.27;34.62;99474.88;5143935;27;20489;-68
2022/04/23 00:10:30;;;;;;;9.30;5.82;;;;;;;21.29;34.74;99479.03;5143635;27;20515;-69
2022/04/23 00:12:56;;;;;;;8.63;6.07;;;;;;;21.31;34.46;99477.00;5148644;27;20035;-70
2022/04/23 00:15:25;;;;;;;10.32;5.90;;;;;;;21.34;34.54;99473.06;5146200;27;20115;-70
2022/04/23 00:17:51;;;;;;;8.95;6.50;;;;;;;21.35;34.65;99477.44;5123022;27;20023;-70
2022/04/23 00:20:18;;;;;;;13.32;6.18;;;;;;;21.34;34.58;99476.59;5137059;27;20429;-71
2022/04/23 00:22:44;;;;;;;12.32;6.13;;;;;;;21.37;34.68;99475.38;5135932;27;20027;-72
2022/04/23 00:25:10;;;;;;;6.50;5.15;;;;;;;21.35;34.49;99474.72;5131313;27;20045;-69
2022/04/23 00:27:35;;;;;;;8.32;5.60;;;;;;;21.37;34.47;99474.56;5136089;27;20027;-72
2022/04/23 00:30:02;;;;;;;11.73;6.40;;;;;;;21.40;34.19;99476.84;5124177;27;20035;-70
2022/04/23 00:32:27;;;;;;;11.32;6.55;;;;;;;21.41;34.28;99476.66;5132619;27;20043;-70
2022/04/23 00:34:53;;;;;;;11.02;6.93;;;;;;;21.41;34.30;99473.97;5136893;27;20084;-71
2022/04/23 00:37:18;;;;;;;14.27;6.78;;;;;;;21.44;34.24;99475.44;5118012;27;20031;-70
2022/04/23 00:39:43;;;;;;;10.70;5.78;;;;;;;21.46;34.25;99478.78;5117778;27;20114;-70
2022/04/23 00:42:09;;;;;;;12.48;5.75;;;;;;;21.45;34.28;99477.09;5129137;27;20493;-71
2022/04/23 00:44:36;;;;;;;9.70;6.47;;;;;;;21.45;34.41;99477.09;5127981;27;20080;-70
2022/04/23 00:47:01;;;;;;;6.43;5.10;;;;;;;21.43;34.60;99477.31;5129074;27;20034;-71
2022/04/23 00:49:27;;;;;;;8.27;6.15;;;;;;;21.41;34.61;99478.50;5136666;27;20414;-70
2022/04/23 00:51:53;;;;;;;11.98;5.85;;;;;;;21.40;34.66;99480.38;5141083;27;20039;-71
2022/04/23 00:54:20;;;;;;;6.68;5.50;;;;;;;21.40;34.58;99480.38;5143955;27;20063;-71
2022/04/23 00:56:45;;;;;;;8.65;5.88;;;;;;;21.41;34.60;99482.06;5134561;27;20031;-68
2022/04/23 00:59:12;;;;;;;10.63;5.75;;;;;;;21.42;34.60;99485.56;5135572;27;20497;-69
2022/04/23 01:01:45;;;;;;;10.23;5.47;;;;;;;21.41;34.40;99476.66;5134786;27;20038;-70
2022/04/23 01:04:12;;;;;;;9.30;6.47;;;;;;;21.39;34.64;99475.22;5135794;27;20034;-69
2022/04/23 01:06:38;;;;;;;10.10;5.95;;;;;;;21.38;34.76;99473.53;5135400;27;20034;-70
2022/04/23 01:09:06;;;;;;;8.70;6.70;;;;;;;21.37;34.76;99474.56;5135481;27;20485;-70
2022/04/23 01:11:32;;;;;;;10.00;5.95;;;;;;;21.37;34.70;99475.38;5136861;27;20035;-70
2022/04/23 01:13:58;;;;;;;10.50;6.30;;;;;;;21.36;34.55;99473.72;5135274;27;20401;-70
2022/04/23 01:16:24;;;;;;;9.75;5.78;;;;;;;21.37;34.63;99466.50;5135137;27;20031;-70
2022/04/23 01:18:50;;;;;;;9.57;5.65;;;;;;;21.37;34.76;99466.50;5134892;27;20087;-70
2022/04/23 01:21:15;;;;;;;7.85;5.82;;;;;;;21.33;34.59;99466.03;5134648;27;20023;-70
2022/04/23 01:23:41;;;;;;;11.20;6.03;;;;;;;21.31;34.88;99454.63;5134874;27;20076;-70
2022/04/23 01:26:08;;;;;;;7.93;5.93;;;;;;;21.30;34.60;99464.56;5126707;27;20109;-70
2022/04/23 01:28:35;;;;;;;10.60;6.35;;;;;;;21.28;34.80;99465.78;5133916;27;20034;-70
2022/04/23 01:31:01;;;;;;;8.32;5.80;;;;;;;21.26;34.74;99460.56;5134809;27;20459;-70
2022/04/23 01:33:27;;;;;;;11.25;6.78;;;;;;;21.24;34.80;99449.19;5134975;27;20106;-70
2022/04/23 01:35:52;;;;;;;10.13;6.32;;;;;;;21.25;34.67;99458.09;5134784;27;20114;-70
2022/04/23 01:38:18;;;;;;;12.27;6.45;;;;;;;21.25;34.89;99455.41;5134870;27;20035;-70
2022/04/23 01:40:44;;;;;;;8.90;6.68;;;;;;;21.24;34.96;99459.97;5134048;27;20057;-69
2022/04/23 01:43:09;;;;;;;7.65;6.15;;;;;;;21.23;34.89;99449.38;5116183;27;20473;-69
2022/04/23 01:45:36;;;;;;;10.05;5.68;;;;;;;21.24;34.89;99451.03;5134318;27;20027;-70
2022/04/23 01:48:02;;;;;;;10.50;6.38;;;;;;;21.23;34.90;99458.28;5134659;27;20031;-70
2022/04/23 01:50:28;;;;;;;11.90;7.20;;;;;;;21.23;34.85;99454.75;5133751;27;20031;-70
2022/04/23 01:52:53;;;;;;;11.55;6.55;;;;;;;21.22;34.83;99456.63;5133703;27;20039;-70
2022/04/23 01:55:19;;;;;;;15.25;6.45;;;;;;;21.21;34.94;99454.97;5133491;27;20504;-70
2022/04/23 01:57:44;;;;;;;10.25;6.65;;;;;;;21.22;34.88;99456.63;5134895;27;20110;-70
2022/04/23 02:00:13;;;;;;;8.73;6.32;;;;;;;21.21;35.08;99451.41;5124304;27;20039;-70
2022/04/23 02:02:42;;;;;;;13.70;6.38;;;;;;;21.23;35.08;99458.28;5118925;27;20038;-70
2022/04/23 02:05:09;;;;;;;10.95;6.45;;;;;;;21.23;34.94;99455.59;5115913;27;20075;-70
2022/04/23 02:07:39;;;;;;;12.52;7.18;;;;;;;21.23;35.11;99452.06;5113718;27;20023;-69
2022/04/23 02:10:10;;;;;;;9.52;6.75;;;;;;;21.19;35.16;99457.00;5113612;27;20023;-69
2022/04/23 02:12:38;;;;;;;13.15;6.50;;;;;;;21.17;35.02;99456.34;5129748;27;20031;-70
2022/04/23 02:15:07;;;;;;;14.10;7.50;;;;;;;21.16;35.20;99460.91;5123783;27;20039;-69
2022/04/23 02:17:37;;;;;;;10.88;6.38;;;;;;;21.15;35.03;99463.78;5118040;27;20127;-69
2022/04/23 02:20:08;;;;;;;12.88;7.63;;;;;;;21.15;35.03;99458.41;5113374;27;20485;-69
2022/04/23 02:22:33;;;;;;;12.77;6.88;;;;;;;21.16;35.10;99457.38;5115668;27;20023;-69
2022/04/23 02:25:00;;;;;;;10.32;7.00;;;;;;;21.13;35.15;99464.00;5115192;27;20038;-69
2022/04/23 02:27:25;;;;;;;13.25;7.18;;;;;;;21.12;35.14;99464.16;5113530;27;20035;-69
2022/04/23 02:29:52;;;;;;;14.30;7.60;;;;;;;21.10;35.16;99467.06;5113315;28;20056;-69
2022/04/23 02:32:17;;;;;;;11.48;7.70;;;;;;;21.07;35.31;99467.44;5118162;27;20035;-69
2022/04/23 02:34:43;;;;;;;12.88;7.50;;;;;;;21.07;35.24;99472.00;5113287;27;20395;-69
2022/04/23 02:37:09;;;;;;;11.82;7.78;;;;;;;21.06;35.49;99471.16;5113297;27;20062;-69
2022/04/23 02:39:35;;;;;;;12.63;7.18;;;;;;;21.03;35.55;99466.13;5118598;27;20426;-70
2022/04/23 02:42:01;;;;;;;13.15;7.55;;;;;;;21.03;35.51;99463.44;5119301;27;20675;-69
2022/04/23 02:44:28;;;;;;;14.07;8.15;;;;;;;21.03;35.69;99468.84;5116637;27;20031;-69
2022/04/23 02:46:53;;;;;;;12.80;6.95;;;;;;;21.00;35.64;99461.16;5114907;27;20453;-69
2022/04/23 02:49:19;;;;;;;14.88;8.15;;;;;;;21.00;35.70;99462.00;5113147;28;20055;-70
2022/04/23 02:51:44;;;;;;;15.77;8.05;;;;;;;21.00;35.69;99463.84;5112788;27;20075;-70
2022/04/23 02:54:12;;;;;;;17.52;8.60;;;;;;;20.99;35.66;99460.31;5116298;27;20055;-70
2022/04/23 02:56:38;;;;;;;12.75;7.70;;;;;;;20.95;35.85;99455.50;5114581;27;20118;-69
2022/04/23 02:59:05;;;;;;;11.73;8.38;;;;;;;20.94;35.99;99461.91;5114082;27;20119;-70
2022/04/23 03:01:31;;;;;;;15.95;7.93;;;;;;;20.89;36.15;99454.44;5112832;28;20019;-69
2022/04/23 03:03:58;;;;;;;15.88;7.68;;;;;;;20.92;36.34;99463.97;5112843;27;20367;-70
2022/04/23 03:06:30;;;;;;;13.75;8.25;;;;;;;20.92;36.21;99458.59;5113195;27;20114;-68
2022/04/23 03:08:56;;;;;;;11.82;8.63;;;;;;;20.91;36.44;99460.44;5115085;27;20024;-70
2022/04/23 03:11:22;;;;;;;11.52;7.95;;;;;;;20.89;36.71;99454.44;5114160;27;20031;-70
2022/04/23 03:13:48;;;;;;;12.35;8.30;;;;;;;20.89;36.86;99467.88;5113035;28;20031;-70
2022/04/23 03:16:13;;;;;;;19.25;8.38;;;;;;;20.89;36.85;99452.56;5113418;28;20038;-69
2022/04/23 03:18:39;;;;;;;15.85;8.75;;;;;;;20.89;36.78;99457.13;5131134;27;20039;-70
2022/04/23 03:21:05;;;;;;;15.80;8.98;;;;;;;20.87;36.85;99456.47;5133487;27;20027;-70
2022/04/23 03:23:31;;;;;;;13.50;8.90;;;;;;;20.86;37.02;99452.09;5133826;27;20042;-70
2022/04/23 03:25:57;;;;;;;12.52;8.15;;;;;;;20.86;37.13;99452.97;5133127;27;20079;-69
2022/04/23 03:28:23;;;;;;;13.20;9.10;;;;;;;20.86;36.96;99452.09;5133002;28;20031;-70
2022/04/23 03:30:48;;;;;;;16.95;9.38;;;;;;;20.85;37.23;99445.06;5133522;27;20035;-69
2022/04/23 03:33:14;;;;;;;14.20;8.95;;;;;;;20.86;37.00;99446.72;5133504;28;20062;-70
2022/04/23 03:35:40;;;;;;;14.95;8.48;;;;;;;20.89;37.08;99454.44;5132457;27;20039;-70
2022/04/23 03:38:05;;;;;;;18.70;8.63;;;;;;;20.90;36.99;99448.03;5133441;28;20127;-70
2022/04/23 03:40:31;;;;;;;11.60;8.30;;;;;;;20.91;37.05;99454.22;5134433;27;20507;-71
2022/04/23 03:42:57;;;;;;;16.88;8.85;;;;;;;20.92;37.19;99456.75;5133671;28;20107;-70
2022/04/23 03:45:24;;;;;;;13.63;8.63;;;;;;;20.93;37.13;99458.41;5133590;27;20027;-70
2022/04/23 03:47:49;;;;;;;17.50;8.55;;;;;;;20.93;36.98;99454.88;5132877;27;20031;-70
2022/04/23 03:50:16;;;;;;;15.70;8.10;;;;;;;20.95;37.01;99458.22;5133532;28;20046;-70
2022/04/23 03:52:43;;;;;;;12.60;8.13;;;;;;;20.96;36.75;99459.88;5131220;27;20137;-70
2022/04/23 03:55:11;;;;;;;16.75;8.73;;;;;;;20.99;36.88;99460.31;5112600;28;20024;-70
2022/04/23 03:57:47;;;;;;;15.00;8.80;;;;;;;20.98;37.09;99461.34;5122436;27;20027;-70
2022/04/23 04:00:14;;;;;;;12.30;8.65;;;;;;;20.97;37.17;99462.38;5133840;28;20123;-70
2022/04/23 04:02:41;;;;;;;17.23;9.23;;;;;;;20.94;37.24;99457.38;5132369;27;20023;-69
2022/04/23 04:05:07;;;;;;;18.25;9.05;;;;;;;20.94;37.34;99464.59;5127729;27;20095;-70
2022/04/23 04:07:33;;;;;;;11.93;8.98;;;;;;;20.93;37.31;99462.94;5132797;27;20031;-70
2022/04/23 04:10:02;;;;;;;15.13;8.90;;;;;;;20.91;37.43;99448.84;5132940;27;20031;-70
2022/04/23 04:12:28;;;;;;;13.65;8.85;;;;;;;20.90;37.44;99448.03;5132676;27;20088;-70
2022/04/23 04:14:54;;;;;;;14.10;8.82;;;;;;;20.91;37.40;99451.53;5132759;27;20031;-70
2022/04/23 04:17:19;;;;;;;13.07;7.65;;;;;;;20.92;37.45;99451.38;5134522;27;20041;-70
2022/04/23 04:19:45;;;;;;;15.43;8.60;;;;;;;20.92;37.56;99451.38;5136892;27;20087;-70
2022/04/23 04:22:10;;;;;;;14.20;8.25;;;;;;;20.93;37.45;99453.03;5136705;27;20027;-70
2022/04/23 04:24:36;;;;;;;11.80;8.13;;;;;;;20.93;37.44;99457.56;5136788;27;20054;-70
2022/04/23 04:27:02;;;;;;;11.55;8.60;;;;;;;20.93;37.43;99450.34;5117003;27;20505;-70
2022/04/23 04:29:28;;;;;;;11.07;8.25;;;;;;;20.94;37.20;99454.69;5131428;27;20039;-70
2022/04/23 04:31:54;;;;;;;14.88;8.85;;;;;;;20.97;37.34;99462.38;5136286;27;20030;-70
2022/04/23 04:34:29;;;;;;;13.38;8.50;;;;;;;21.00;37.31;99462.00;5136391;27;20050;-70
2022/04/23 04:37:09;;;;;;;15.43;8.30;;;;;;;21.00;37.27;99458.47;5136259;27;20027;-70
2022/04/23 04:39:37;;;;;;;13.02;8.05;;;;;;;21.01;37.25;99466.34;5137076;27;20035;-70
2022/04/23 04:42:03;;;;;;;12.63;9.25;;;;;;;21.04;37.01;99457.06;5135889;27;20038;-70
2022/04/23 04:44:29;;;;;;;16.98;9.57;;;;;;;21.03;37.44;99453.53;5136479;27;20500;-70
2022/04/23 04:46:55;;;;;;;11.95;8.57;;;;;;;21.03;37.46;99460.75;5136361;27;20031;-71
2022/04/23 04:49:22;;;;;;;14.18;8.48;;;;;;;21.01;37.27;99458.28;5136618;27;20042;-70
2022/04/23 04:51:49;;;;;;;14.25;8.52;;;;;;;21.01;37.57;99455.59;5136258;27;20051;-70
2022/04/23 04:54:17;;;;;;;15.15;8.55;;;;;;;20.98;37.33;99450.59;5136463;27;20039;-70
2022/04/23 04:56:47;;;;;;;14.02;8.77;;;;;;;21.00;37.52;99445.03;5136166;27;20371;-70
2022/04/23 04:59:13;;;;;;;14.68;8.57;;;;;;;21.00;37.53;99453.91;5136480;27;20035;-70
2022/04/23 05:01:38;;;;;;;14.63;8.90;;;;;;;21.00;37.73;99456.59;5135690;27;20019;-70
2022/04/23 05:04:04;;;;;;;11.18;8.55;;;;;;;21.03;37.72;99463.44;5135980;27;20035;-71
2022/04/23 05:06:29;;;;;;;12.15;8.80;;;;;;;21.04;37.59;99465.97;5136003;27;20420;-70
2022/04/23 05:08:55;;;;;;;12.50;9.85;;;;;;;21.07;37.59;99463.94;5136287;27;20023;-71
2022/04/23 05:11:21;;;;;;;14.82;9.60;;;;;;;21.06;37.64;99457.69;5135520;27;20476;-68
2022/04/23 05:13:46;;;;;;;17.25;10.27;;;;;;;21.08;37.72;99466.41;5136148;27;20398;-68
2022/04/23 05:16:12;;;;;;;12.55;9.18;;;;;;;21.09;37.63;99456.50;5133129;27;20033;-70
2022/04/23 05:18:37;;;;;;;13.00;8.68;;;;;;;21.13;37.65;99452.38;5135722;27;20122;-71
2022/04/23 05:21:03;;;;;;;12.23;8.98;;;;;;;21.14;37.64;99454.91;5136137;27;20038;-68
2022/04/23 05:23:29;;;;;;;11.10;8.20;;;;;;;21.16;37.76;99454.69;5135104;27;20034;-71
2022/04/23 05:25:55;;;;;;;11.63;8.23;;;;;;;21.19;37.52;99451.63;5135057;27;20084;-71
2022/04/23 05:28:21;;;;;;;12.52;8.45;;;;;;;21.23;37.62;99452.06;5134731;27;20489;-71
2022/04/23 05:30:46;;;;;;;13.93;8.50;;;;;;;21.27;37.74;99448.78;5135319;27;20054;-71
2022/04/23 05:33:12;;;;;;;11.25;8.18;;;;;;;21.28;37.58;99444.25;5135662;27;20059;-71
2022/04/23 05:35:38;;;;;;;17.13;9.95;;;;;;;21.30;37.64;99445.72;5135403;27;20528;-71
2022/04/23 05:38:04;;;;;;;13.73;9.23;;;;;;;21.30;37.44;99445.72;5135057;27;20039;-69
2022/04/23 05:40:29;;;;;;;14.20;9.68;;;;;;;21.30;37.44;99445.72;5135183;27;20517;-69
2022/04/23 05:42:58;;;;;;;12.82;8.57;;;;;;;21.28;37.44;99445.06;5135202;27;20076;-72
2022/04/23 05:45:24;;;;;;;14.00;8.77;;;;;;;21.29;37.56;99441.34;5134914;27;20398;-69
2022/04/23 05:47:49;;;;;;;14.52;10.00;;;;;;;21.31;37.44;99444.69;5134695;27;20037;-70
2022/04/23 05:50:15;;;;;;;14.32;8.85;;;;;;;21.31;37.39;99443.88;5135302;27;20039;-71
2022/04/23 05:52:40;;;;;;;12.25;9.55;;;;;;;21.32;37.44;99434.78;5134647;27;20039;-71
2022/04/23 05:55:07;;;;;;;13.05;9.00;;;;;;;21.34;37.42;99425.47;5135115;27;20031;-71
2022/04/23 05:57:33;;;;;;;20.33;10.00;;;;;;;21.37;37.38;99423.44;5134916;27;20030;-71
2022/04/23 05:59:59;;;;;;;12.00;9.20;;;;;;;21.41;37.26;99422.84;5135280;27;20039;-71
2022/04/23 06:02:25;;;;;;;18.98;10.50;;;;;;;21.43;37.33;99425.31;5134288;27;20023;-71
2022/04/23 06:04:50;;;;;;;12.65;9.88;;;;;;;21.46;37.10;99424.94;5120681;27;20051;-70
2022/04/23 06:07:16;;;;;;;14.60;9.75;;;;;;;21.49;37.04;99430.75;5114063;28;20452;-71
2022/04/23 06:09:42;;;;;;;18.58;9.75;;;;;;;21.53;36.97;99420.44;5114145;28;20034;-70
2022/04/23 06:12:08;;;;;;;14.98;9.15;;;;;;;21.58;36.96;99420.69;5126862;27;20470;-71
2022/04/23 06:14:34;;;;;;;15.63;10.05;;;;;;;21.62;36.78;99424.69;5134498;27;20494;-70
2022/04/23 06:16:59;;;;;;;10.80;8.27;;;;;;;21.66;36.79;99419.72;5134767;27;20075;-69
2022/04/23 06:19:25;;;;;;;15.25;8.80;;;;;;;21.72;36.69;99428.88;5134718;27;20027;-71
2022/04/23 06:21:51;;;;;;;12.30;9.10;;;;;;;21.73;36.73;99430.56;5134259;27;20406;-70
2022/04/23 06:24:16;;;;;;;12.90;7.90;;;;;;;21.76;36.70;99427.47;5134447;27;20065;-70
2022/04/23 06:26:42;;;;;;;13.93;8.48;;;;;;;21.75;36.68;99434.72;5133685;27;20037;-70
2022/04/23 06:29:07;;;;;;;13.30;8.70;;;;;;;21.82;36.70;99442.84;5134217;27;20023;-70
2022/04/23 06:31:33;;;;;;;12.50;8.13;;;;;;;21.92;36.35;99440.63;5134635;27;20037;-71
2022/04/23 06:33:59;;;;;;;12.98;9.10;;;;;;;22.08;36.24;99441.34;5134283;27;20083;-72
2022/04/23 06:36:24;;;;;;;10.88;7.85;;;;;;;22.21;35.88;99438.72;5133562;27;20035;-71
2022/04/23 06:38:50;;;;;;;9.85;6.55;;;;;;;22.33;35.94;99435.44;5134459;27;20035;-71
2022/04/23 06:41:17;;;;;;;9.50;5.90;;;;;;;22.50;35.64;99447.59;5134588;27;20406;-71
2022/04/23 06:43:42;;;;;;;9.32;5.90;;;;;;;22.64;35.32;99447.63;5134401;27;20035;-71
2022/04/23 06:46:08;;;;;;;10.40;5.43;;;;;;;22.79;35.16;99450.19;5133958;27;20023;-71
2022/04/23 06:48:33;;;;;;;8.10;5.97;;;;;;;22.89;35.15;99439.81;5134414;27;20027;-70
2022/04/23 06:50:59;;;;;;;8.82;5.85;;;;;;;22.99;35.12;99439.44;5134357;27;20086;-74
2022/04/23 06:53:24;;;;;;;9.25;4.70;;;;;;;23.10;34.81;99436.13;5125600;27;20047;-74
2022/04/23 06:55:50;;;;;;;12.30;5.80;;;;;;;23.20;34.72;99435.75;5117135;27;20034;-73
2022/04/23 06:58:16;;;;;;;12.80;5.65;;;;;;;23.27;34.55;99433.06;5134154;27;20030;-73
2022/04/23 07:00:41;;;;;;;7.68;4.90;;;;;;;23.35;34.41;99438.25;5134031;27;20110;-72
2022/04/23 07:03:08;;;;;;;7.90;4.63;;;;;;;23.44;34.47;99444.28;5133832;27;20486;-74
2022/04/23 07:05:34;;;;;;;10.13;5.72;;;;;;;23.50;34.37;99443.47;5133922;27;20114;-73
2022/04/23 07:08:01;;;;;;;7.30;4.63;;;;;;;23.54;34.42;99438.47;5132982;27;20035;-73
2022/04/23 07:10:29;;;;;;;10.80;5.88;;;;;;;23.59;34.21;99436.78;5133022;27;20482;-71
2022/04/23 07:12:56;;;;;;;7.10;5.32;;;;;;;23.61;33.70;99437.41;5133515;27;20039;-71
2022/04/23 07:15:23;;;;;;;6.10;4.18;;;;;;;23.65;34.12;99440.53;5133404;27;20446;-71
2022/04/23 07:17:52;;;;;;;7.93;6.80;;;;;;;23.65;33.63;99429.72;5133523;27;20034;-73
2022/04/23 07:20:18;;;;;;;10.82;7.55;;;;;;;23.58;33.48;99427.03;5134099;27;20074;-71
2022/04/23 07:25:29;;;;;;;6.82;4.50;;;;;;;23.64;33.74;99433.47;5127152;27;20085;-73
2022/04/23 07:27:55;;;;;;;9.30;4.90;;;;;;;23.70;33.49;99429.94;5129990;27;20039;-73
2022/04/23 07:30:23;;;;;;;10.68;6.18;;;;;;;23.75;33.54;99432.81;5133764;28;20039;-72
2022/04/23 07:32:48;;;;;;;6.07;3.97;;;;;;;23.78;33.45;99427.00;5133255;28;20079;-72
2022/04/23 07:38:12;;;;;;;4.57;3.60;;;;;;;23.87;33.48;99430.31;5134095;27;20123;-72
2022/04/23 07:40:41;;;;;;;8.40;4.65;;;;;;;23.90;33.29;99435.31;5133543;27;20035;-71
2022/04/23 07:43:11;;;;;;;5.53;3.92;;;;;;;23.94;33.21;99427.59;5133335;28;20058;-72
2022/04/23 07:45:41;;;;;;;9.98;3.90;;;;;;;23.98;33.01;99426.16;5132696;27;20080;-73
2022/04/23 07:48:09;;;;;;;5.30;3.63;;;;;;;24.03;33.36;99423.69;5133485;27;20041;-73
2022/04/23 07:50:36;;;;;;;7.53;4.22;;;;;;;24.12;32.97;99423.44;5133522;27;20038;-72
2022/04/23 07:53:01;;;;;;;8.52;4.30;;;;;;;24.16;32.89;99414.69;5135931;27;20042;-73
2022/04/23 07:55:30;;;;;;;7.03;4.15;;;;;;;24.25;33.10;99415.28;5137157;27;20485;-72
2022/04/23 07:58:04;;;;;;;7.28;4.22;;;;;;;24.30;33.01;99412.75;5137400;27;20035;-71
2022/04/23 08:00:34;;;;;;;10.32;7.15;;;;;;;24.37;32.63;99418.97;5137771;27;20419;-73
2022/04/23 08:03:04;;;;;;;7.72;5.05;;;;;;;24.39;32.59;99424.19;5136967;27;20113;-72
2022/04/23 08:05:30;;;;;;;8.00;5.05;;;;;;;24.46;32.65;99426.84;5137502;27;20042;-71
2022/04/23 08:07:56;;;;;;;4.25;3.63;;;;;;;24.53;32.67;99414.09;5137160;27;20034;-71
2022/04/23 08:10:22;;;;;;;6.70;4.05;;;;;;;24.59;32.15;99407.00;5137249;27;20027;-72
2022/04/23 08:12:47;;;;;;;11.85;5.10;;;;;;;24.64;32.16;99401.78;5136817;27;20031;-72
2022/04/23 08:15:13;;;;;;;8.23;3.92;;;;;;;24.71;32.32;99407.19;5136850;27;20038;-72
2022/04/23 08:17:39;;;;;;;5.53;4.38;;;;;;;24.73;31.91;99403.22;5136876;27;20109;-73
2022/04/23 08:20:06;;;;;;;4.70;3.53;;;;;;;24.76;32.25;99400.06;5137225;27;20394;-73
2022/04/23 08:22:31;;;;;;;5.05;4.10;;;;;;;24.79;32.06;99401.50;5136311;27;20027;-72
2022/04/23 08:24:57;;;;;;;7.22;4.10;;;;;;;24.79;31.76;99402.34;5136257;27;20031;-72
2022/04/23 08:27:22;;;;;;;6.88;3.70;;;;;;;24.83;32.08;99408.16;5136311;27;20427;-72
2022/04/23 08:32:34;;;;;;;6.50;3.60;;;;;;;24.88;32.01;99402.91;5143319;27;20051;-72
2022/04/23 08:34:59;;;;;;;6.75;4.13;;;;;;;24.91;32.00;99399.78;5148878;27;20067;-73
2022/04/23 08:37:25;;;;;;;8.10;5.43;;;;;;;24.94;31.86;99396.63;5136718;27;20043;-73
2022/04/23 08:39:51;;;;;;;8.43;6.32;;;;;;;24.98;31.44;99397.03;5136395;27;20111;-72
2022/04/23 08:42:18;;;;;;;9.07;6.78;;;;;;;25.02;31.56;99400.94;5136587;27;20034;-73
2022/04/23 08:44:44;;;;;;;9.93;5.78;;;;;;;25.04;31.15;99390.72;5136713;27;20031;-72
2022/04/23 08:47:11;;;;;;;6.78;4.70;;;;;;;25.05;31.11;99392.38;5135754;27;20045;-74
2022/04/23 08:49:39;;;;;;;8.40;5.03;;;;;;;25.08;31.54;99382.97;5136999;27;20110;-71
2022/04/23 08:52:19;;;;;;;6.72;4.22;;;;;;;25.12;31.03;99392.34;5135989;27;20051;-72
2022/04/23 08:54:46;;;;;;;6.15;4.20;;;;;;;25.14;31.39;99390.25;5136721;27;20484;-72
2022/04/23 08:57:12;;;;;;;8.82;4.65;;;;;;;25.17;31.01;99392.50;5135446;27;20022;-72
2022/04/23 08:59:38;;;;;;;6.10;4.40;;;;;;;25.21;31.07;99396.44;5108949;28;20127;-72
2022/04/23 09:02:11;;;;;;;5.93;3.70;;;;;;;25.22;30.96;99394.56;5128532;27;20027;-71
2022/04/23 09:04:37;;;;;;;4.85;3.55;;;;;;;25.27;31.12;99400.97;5125384;27;20571;-72
2022/04/23 09:07:03;;;;;;;4.95;3.50;;;;;;;25.28;30.98;99394.50;5115425;28;20040;-72
2022/04/23 09:09:29;;;;;;;4.65;3.60;;;;;;;25.29;31.06;99398.84;5131117;27;20034;-71
2022/04/23 09:11:58;;;;;;;3.88;3.05;;;;;;;25.33;30.90;99401.94;5141435;27;20093;-70
2022/04/23 09:14:32;;;;;;;6.40;5.07;;;;;;;25.31;31.16;99393.22;5136035;27;20121;-72
2022/04/23 09:25:35;;;;;;;6.10;3.30;;;;;;;25.25;31.28;99392.22;5133970;27;19966;-70
2022/04/23 09:28:20;;;;;;;4.90;3.03;;;;;;;25.25;31.42;99400.34;5115201;27;20448;-71
2022/04/23 09:30:51;;;;;;;5.20;3.30;;;;;;;25.28;31.15;99388.25;5115688;27;20114;-72
2022/04/23 09:33:18;;;;;;;13.07;5.43;;;;;;;25.27;31.34;99395.53;5122598;27;20110;-72
2022/04/23 09:36:03;;;;;;;10.15;6.80;;;;;;;25.27;30.93;99392.84;5116524;27;20023;-71
2022/04/23 09:38:30;;;;;;;10.75;6.75;;;;;;;25.27;30.86;99389.31;5119505;27;20054;-72
2022/04/23 09:40:58;;;;;;;13.23;7.28;;;;;;;25.27;31.02;99390.13;5095890;28;20432;-73
2022/04/23 09:43:28;;;;;;;9.85;6.32;;;;;;;25.27;31.09;99384.72;5120073;27;20027;-70
2022/04/23 09:46:01;;;;;;;12.57;7.25;;;;;;;25.27;30.55;99379.28;5132257;27;20158;-70
2022/04/23 09:48:26;;;;;;;8.00;6.32;;;;;;;25.27;30.78;99386.59;5120171;27;20059;-71
2022/04/23 09:50:52;;;;;;;10.60;7.82;;;;;;;25.28;30.66;99380.94;5123901;27;20550;-69
2022/04/23 09:53:21;;;;;;;14.63;7.25;;;;;;;25.30;30.54;99375.31;5134086;27;20061;-71
2022/04/23 09:55:50;;;;;;;14.02;7.10;;;;;;;25.31;30.18;99381.56;5140397;27;20515;-71
2022/04/23 09:58:16;;;;;;;9.77;7.10;;;;;;;25.29;30.31;99377.19;5134585;27;20447;-72
2022/04/23 10:00:44;;;;;;;12.43;6.43;;;;;;;25.32;30.56;99369.69;5132488;27;20047;-72
2022/04/23 10:03:12;;;;;;;13.98;5.97;;;;;;;25.32;30.11;99366.97;5140896;27;20039;-71
2022/04/23 10:05:45;;;;;;;8.05;6.13;;;;;;;25.28;30.25;99374.72;5137035;27;20400;-73
2022/04/23 10:08:23;;;;;;;10.40;5.05;;;;;;;25.24;30.45;99368.09;5134213;27;20066;-70
2022/04/23 10:11:07;;;;;;;17.10;7.20;;;;;;;25.23;30.39;99372.66;5134291;27;21316;-74
2022/04/23 10:13:34;;;;;;;9.07;5.38;;;;;;;25.17;30.80;99365.44;5141429;27;20039;-70
2022/04/23 10:16:03;;;;;;;11.18;6.20;;;;;;;25.14;30.80;99358.59;5138920;27;20030;-71
2022/04/23 10:18:29;;;;;;;7.80;5.22;;;;;;;25.08;30.63;99380.28;5153434;27;20041;-74
2022/04/23 10:20:58;;;;;;;7.53;5.10;;;;;;;25.08;30.68;99370.28;5151085;27;20486;-74
2022/04/23 10:23:27;;;;;;;11.15;5.00;;;;;;;25.09;30.85;99368.41;5135294;27;20035;-71
2022/04/23 10:26:15;;;;;;;7.32;5.65;;;;;;;25.05;30.56;99362.59;5130795;27;20030;-71
2022/04/23 10:28:48;;;;;;;7.05;5.38;;;;;;;25.04;30.59;99362.84;5133326;27;20058;-71
2022/04/23 10:31:16;;;;;;;6.35;5.18;;;;;;;25.04;30.78;99357.44;5129185;27;20027;-71
2022/04/23 10:33:54;;;;;;;9.88;5.22;;;;;;;25.06;30.68;99363.44;5134342;27;20027;-69
2022/04/23 10:36:22;;;;;;;6.53;4.50;;;;;;;25.08;30.48;99356.75;5133681;27;20042;-69
2022/04/23 10:39:08;;;;;;;7.63;4.55;;;;;;;25.09;30.39;99350.28;5134243;27;20035;-70
2022/04/23 10:41:34;;;;;;;7.68;4.40;;;;;;;25.12;30.55;99360.69;5129441;27;20056;-70
2022/04/23 10:44:04;;;;;;;17.75;5.93;;;;;;;25.06;30.70;99352.63;5131680;27;20034;-70
2022/04/23 10:46:45;;;;;;;10.13;7.28;;;;;;;24.82;30.33;99350.50;5132222;27;20558;-70
2022/04/23 10:49:14;;;;;;;13.57;6.43;;;;;;;24.63;30.64;99348.72;5134108;27;20035;-72
2022/04/23 10:52:04;;;;;;;15.60;5.63;;;;;;;24.51;30.74;99349.44;5130923;27;20080;-68
2022/04/23 10:54:45;;;;;;;10.50;5.68;;;;;;;24.40;30.93;99349.28;5146609;27;20042;-71
2022/04/23 10:57:15;;;;;;;9.20;6.15;;;;;;;24.31;31.00;99351.41;5134998;27;20031;-66
2022/04/23 10:59:48;;;;;;;11.18;4.97;;;;;;;24.38;31.41;99342.22;5133790;27;20397;-69
2022/04/23 11:02:19;;;;;;;9.32;5.70;;;;;;;24.47;31.53;99347.38;5133400;27;20058;-67
2022/04/23 11:13:28;;;;;;;9.10;5.20;;;;;;;24.39;31.17;99329.53;5146651;27;20033;-67
2022/04/23 11:16:07;;;;;;;9.25;4.50;;;;;;;24.47;30.90;99331.16;5139404;27;20095;-69
2022/04/23 11:18:34;;;;;;;7.03;4.95;;;;;;;24.49;31.24;99329.03;5127421;27;20077;-67
2022/04/23 11:21:28;;;;;;;8.30;4.43;;;;;;;24.55;30.94;99332.78;5137871;27;20110;-66
2022/04/23 11:23:55;;;;;;;8.43;4.60;;;;;;;24.56;31.11;99324.44;5152004;27;20038;-67
2022/04/23 11:26:38;;;;;;;7.80;3.80;;;;;;;24.60;31.32;99320.25;5139652;27;20038;-66
2022/04/23 11:29:04;;;;;;;11.20;4.82;;;;;;;24.64;31.33;99315.22;5134916;27;20042;-70
2022/04/23 11:31:30;;;;;;;9.45;4.90;;;;;;;24.71;31.17;99318.72;5133219;27;20022;-70
2022/04/23 11:33:57;;;;;;;9.02;6.50;;;;;;;24.66;30.96;99310.44;5133430;28;20034;-71
2022/04/23 11:36:28;;;;;;;13.60;6.00;;;;;;;24.61;31.14;99310.25;5133269;27;20402;-71
2022/04/23 11:38:55;;;;;;;8.27;5.28;;;;;;;24.59;31.00;99315.03;5132886;27;20393;-74
2022/04/23 11:41:36;;;;;;;7.93;5.70;;;;;;;24.60;31.40;99312.13;5139242;27;20027;-70
2022/04/23 11:44:16;;;;;;;9.30;5.82;;;;;;;24.62;30.91;99312.75;5133195;28;20031;-72
2022/04/23 11:46:41;;;;;;;7.15;4.85;;;;;;;24.62;30.95;99311.91;5134320;27;20035;-66
2022/04/23 11:49:07;;;;;;;7.22;5.22;;;;;;;24.61;30.67;99302.97;5144775;27;20512;-69
2022/04/23 11:51:32;;;;;;;6.28;4.95;;;;;;;24.61;31.11;99308.38;5139170;27;20055;-70
2022/04/23 11:53:58;;;;;;;15.85;7.43;;;;;;;24.57;30.81;99299.03;5135472;27;20031;-70
2022/04/23 11:56:33;;;;;;;15.85;6.53;;;;;;;24.57;30.66;99309.00;5142977;27;20077;-72